createdAt,value
2023-04-07T00:00:49.954Z,100571.28
2023-04-07T00:03:35.752Z,100501.78
2023-04-07T00:06:21.567Z,100558.03
2023-04-07T00:09:07.342Z,100520.28
2023-04-07T00:11:52.905Z,100559.34
2023-04-07T00:14:39.191Z,100570.81
2023-04-07T00:17:25.371Z,100550.66
2023-04-07T00:20:12.296Z,100493.34
2023-04-07T00:22:58.036Z,100549.84
2023-04-07T00:25:43.794Z,100536.50
2023-04-07T00:28:29.651Z,100515.06
2023-04-07T00:31:15.535Z,100548.84
2023-04-07T00:34:00.939Z,100506.38
2023-04-07T00:36:52.027Z,100549.16
2023-04-07T00:39:38.024Z,100536.88
2023-04-07T00:42:24.147Z,100495.75
2023-04-07T00:45:11.568Z,100512.22
2023-04-07T00:47:58.716Z,100511.84
2023-04-07T00:50:45.966Z,100510.66
2023-04-07T00:53:31.663Z,100493.41
2023-04-07T00:56:17.790Z,100514.75
2023-04-07T00:59:06.593Z,100516.31
2023-04-07T01:02:18.448Z,100504.84
2023-04-07T01:05:23.329Z,100502.09
2023-04-07T01:08:32.419Z,100510.84
2023-04-07T01:11:25.882Z,100508.63
2023-04-07T01:14:13.686Z,100497.34
2023-04-07T01:17:03.969Z,100441.06
2023-04-07T01:19:55.890Z,100498.00
2023-04-07T01:22:44.544Z,100480.06
2023-04-07T01:26:08.820Z,100486.03
2023-04-07T01:29:26.973Z,100479.34
2023-04-07T01:32:13.049Z,100467.94
2023-04-07T01:35:00.054Z,100471.16
2023-04-07T01:37:48.739Z,100462.88
2023-04-07T01:40:35.607Z,100457.19
2023-04-07T01:43:21.667Z,100435.97
2023-04-07T01:46:07.644Z,100403.69
2023-04-07T01:48:53.408Z,100453.22
2023-04-07T01:51:40.716Z,100459.28
2023-04-07T01:54:26.336Z,100438.91
2023-04-07T01:57:13.210Z,100446.00
2023-04-07T01:59:59.826Z,100453.50
2023-04-07T02:02:49.838Z,100448.69
2023-04-07T02:05:36.828Z,100447.06
2023-04-07T02:08:24.529Z,100451.59
2023-04-07T02:11:11.844Z,100452.59
2023-04-07T02:13:58.473Z,100454.78
2023-04-07T02:16:47.684Z,100449.84
2023-04-07T02:19:35.992Z,100449.34
2023-04-07T02:22:21.840Z,100416.41
2023-04-07T02:25:23.819Z,100443.75
2023-04-07T02:28:09.343Z,100450.56
2023-04-07T02:30:55.460Z,100433.59
2023-04-07T02:33:40.886Z,100404.97
2023-04-07T02:36:27.206Z,100416.97
2023-04-07T02:39:13.062Z,100407.16
2023-04-07T02:41:59.782Z,100413.13
2023-04-07T02:44:48.003Z,100415.66
2023-04-07T02:47:34.613Z,100417.94
2023-04-07T02:50:20.534Z,100432.63
2023-04-07T02:53:06.990Z,100397.81
2023-04-07T02:55:52.701Z,100422.47
2023-04-07T02:58:39.277Z,100381.53
2023-04-07T03:01:25.517Z,100421.41
2023-04-07T03:04:11.659Z,100417.84
2023-04-07T03:06:57.710Z,100419.91
2023-04-07T03:09:45.107Z,100386.13
2023-04-07T03:12:31.192Z,100420.00
2023-04-07T03:15:18.729Z,100428.06
2023-04-07T03:18:06.854Z,100406.34
2023-04-07T03:20:55.259Z,100403.28
2023-04-07T03:23:41.068Z,100413.63
2023-04-07T03:26:27.631Z,100422.06
2023-04-07T03:29:14.498Z,100412.66
2023-04-07T03:32:02.149Z,100394.53
2023-04-07T03:34:47.672Z,100405.47
2023-04-07T03:37:33.966Z,100401.59
2023-04-07T03:40:20.232Z,100387.47
2023-04-07T03:43:06.631Z,100367.25
2023-04-07T03:45:55.414Z,100399.22
2023-04-07T03:48:42.616Z,100404.44
2023-04-07T03:51:29.653Z,100396.16
2023-04-07T03:54:17.810Z,100395.56
2023-04-07T03:57:04.324Z,100357.34
2023-04-07T03:59:53.667Z,100388.50
2023-04-07T04:02:40.565Z,100399.06
2023-04-07T04:05:28.355Z,100355.13
2023-04-07T04:08:14.302Z,100393.94
2023-04-07T04:11:01.137Z,100392.03
2023-04-07T04:13:53.869Z,100380.16
2023-04-07T04:16:40.054Z,100370.63
2023-04-07T04:19:39.114Z,100393.34
2023-04-07T04:22:33.476Z,100400.59
2023-04-07T04:25:18.894Z,100392.97
2023-04-07T04:28:10.034Z,100394.09
2023-04-07T04:30:56.063Z,100357.75
2023-04-07T04:33:43.330Z,100387.84
2023-04-07T04:36:29.245Z,100379.66
2023-04-07T04:39:20.454Z,100399.47
2023-04-07T04:42:06.668Z,100383.31
2023-04-07T04:44:55.347Z,100375.22
2023-04-07T04:47:41.641Z,100368.44
2023-04-07T04:50:28.128Z,100385.38
2023-04-07T04:53:14.693Z,100388.66
2023-04-07T04:56:08.552Z,100407.25
2023-04-07T04:59:07.336Z,100365.78
2023-04-07T05:02:02.857Z,100400.84
2023-04-07T05:04:48.742Z,100392.88
2023-04-07T05:07:42.204Z,100359.75
2023-04-07T05:10:24.427Z,100344.91
2023-04-07T05:17:31.078Z,100396.88
2023-04-07T05:20:31.481Z,100410.97
2023-04-07T05:23:18.441Z,100337.63
2023-04-07T05:29:59.978Z,100406.16
2023-04-07T05:33:38.582Z,100399.50
2023-04-07T05:36:50.846Z,100339.84
2023-04-07T05:40:02.278Z,100326.78
2023-04-07T05:42:51.076Z,100300.94
2023-04-07T05:46:37.603Z,100346.63
2023-04-07T05:49:24.562Z,100416.91
2023-04-07T05:52:45.610Z,100415.22
2023-04-07T05:55:47.313Z,100293.50
2023-04-07T05:59:10.597Z,100419.78
2023-04-07T06:03:19.600Z,100418.28
2023-04-07T06:11:07.365Z,100330.22
2023-04-07T07:40:33.506Z,100278.88
2023-04-07T07:44:10.180Z,100359.56
2023-04-07T08:02:44.040Z,100271.16
2023-04-07T08:10:47.657Z,100353.03
2023-04-07T08:14:17.088Z,100416.72
2023-04-07T08:17:08.815Z,100414.25
2023-04-07T08:20:00.032Z,100310.84
2023-04-07T08:22:55.286Z,100421.94
2023-04-07T08:25:57.441Z,100349.63
2023-04-07T08:28:51.775Z,100368.13
2023-04-07T08:31:38.892Z,100433.97
2023-04-07T08:34:32.186Z,100353.34
2023-04-07T08:37:21.554Z,100344.94
2023-04-07T08:40:09.561Z,100348.47
2023-04-07T08:42:56.652Z,100423.09
2023-04-07T08:45:43.093Z,100422.56
2023-04-07T08:48:34.020Z,100401.63
2023-04-07T08:51:28.818Z,100389.34
2023-04-07T08:54:19.047Z,100343.31
2023-04-07T08:57:05.416Z,100357.81
2023-04-07T08:59:52.161Z,100355.66
2023-04-07T09:02:41.677Z,100354.06
2023-04-07T09:05:28.591Z,100426.47
2023-04-07T09:08:14.555Z,100395.47
2023-04-07T09:11:01.364Z,100390.28
2023-04-07T09:13:47.246Z,100390.84
2023-04-07T09:16:34.399Z,100359.53
2023-04-07T09:19:20.594Z,100410.19
2023-04-07T09:22:06.680Z,100407.19
2023-04-07T09:24:52.623Z,100363.91
2023-04-07T09:27:38.899Z,100364.47
2023-04-07T09:30:25.493Z,100325.84
2023-04-07T09:33:16.541Z,100363.69
2023-04-07T09:36:05.155Z,100379.47
2023-04-07T09:38:51.332Z,100390.91
2023-04-07T09:41:37.287Z,100315.28
2023-04-07T09:44:24.012Z,100310.44
2023-04-07T09:47:10.226Z,100389.59
2023-04-07T09:49:56.933Z,100371.66
2023-04-07T09:52:51.008Z,100351.22
2023-04-07T09:59:20.162Z,100391.25
2023-04-07T10:02:25.801Z,100325.16
2023-04-07T10:05:12.981Z,100367.22
2023-04-07T10:07:58.990Z,100392.28
2023-04-07T10:10:44.775Z,100358.38
2023-04-07T10:13:32.269Z,100349.09
2023-04-07T10:16:18.775Z,100328.19
2023-04-07T10:19:06.626Z,100309.47
2023-04-07T10:21:54.614Z,100298.31
2023-04-07T10:24:55.953Z,100358.63
2023-04-07T10:27:59.798Z,100391.84
2023-04-07T10:30:48.311Z,100388.28
2023-04-07T10:33:50.411Z,100309.69
2023-04-07T10:36:36.820Z,100325.19
2023-04-07T10:39:23.352Z,100324.63
2023-04-07T10:42:37.122Z,100373.59
2023-04-07T10:45:46.586Z,100376.59
2023-04-07T10:48:35.613Z,100354.84
2023-04-07T10:51:21.272Z,100366.00
2023-04-07T10:54:17.863Z,100338.81
2023-04-07T10:57:03.798Z,100368.97
2023-04-07T11:00:11.707Z,100364.06
2023-04-07T11:02:57.712Z,100333.63
2023-04-07T11:05:44.188Z,100370.28
2023-04-07T11:08:45.670Z,100372.19
2023-04-07T11:11:42.012Z,100351.78
2023-04-07T11:14:29.237Z,100304.78
2023-04-07T11:17:17.716Z,100370.81
2023-04-07T11:20:04.683Z,100294.69
2023-04-07T11:23:00.627Z,100335.16
2023-04-07T11:25:48.756Z,100322.38
2023-04-07T11:28:34.995Z,100368.31
2023-04-07T11:31:28.879Z,100330.28
2023-04-07T11:34:15.099Z,100348.22
2023-04-07T11:37:24.911Z,100370.25
2023-04-07T11:40:11.611Z,100342.78
2023-04-07T11:42:58.120Z,100288.44
2023-04-07T11:45:44.388Z,100365.84
2023-04-07T11:48:30.827Z,100300.63
2023-04-07T11:51:23.953Z,100318.31
2023-04-07T11:54:10.411Z,100330.53
2023-04-07T11:56:57.019Z,100326.16
2023-04-07T11:59:42.810Z,100295.44
2023-04-07T12:02:33.969Z,100285.09
2023-04-07T12:05:19.915Z,100262.81
2023-04-07T12:08:06.141Z,100241.66
2023-04-07T12:11:04.801Z,100308.44
2023-04-07T12:13:52.065Z,100285.34
2023-04-07T12:16:39.483Z,100254.38
2023-04-07T12:19:28.238Z,100315.22
2023-04-07T12:22:14.217Z,100273.34
2023-04-07T12:25:01.005Z,100266.59
2023-04-07T12:27:46.881Z,100253.53
2023-04-07T12:30:34.002Z,100296.41
2023-04-07T12:33:20.257Z,100271.13
2023-04-07T12:36:06.656Z,100307.81
2023-04-07T12:38:52.959Z,100299.88
2023-04-07T12:41:39.810Z,100332.47
2023-04-07T12:44:25.873Z,100270.84
2023-04-07T12:47:12.658Z,100365.91
2023-04-07T12:49:58.225Z,100259.44
2023-04-07T12:52:44.549Z,100352.28
2023-04-07T12:55:33.846Z,100276.22
2023-04-07T12:58:20.612Z,100354.44
2023-04-07T13:01:07.162Z,100283.31
2023-04-07T13:03:54.057Z,100296.03
2023-04-07T13:06:40.581Z,100231.75
2023-04-07T13:09:27.017Z,100288.47
2023-04-07T13:12:13.352Z,100319.41
2023-04-07T13:15:01.070Z,100313.69
2023-04-07T13:17:47.420Z,100279.22
2023-04-07T13:20:34.245Z,100253.16
2023-04-07T13:23:20.793Z,100309.56
2023-04-07T13:26:07.548Z,100349.41
2023-04-07T13:28:53.826Z,100357.28
2023-04-07T13:31:40.866Z,100276.38
2023-04-07T13:34:28.604Z,100296.69
2023-04-07T13:37:16.688Z,100351.50
2023-04-07T13:40:03.266Z,100295.31
2023-04-07T13:42:50.105Z,100350.94
2023-04-07T13:45:37.066Z,100318.38
2023-04-07T13:48:23.678Z,100222.56
2023-04-07T13:51:12.049Z,100251.53
2023-04-07T13:53:58.686Z,100249.09
2023-04-07T13:56:49.538Z,100230.06
2023-04-07T13:59:36.946Z,100238.22
2023-04-07T14:02:24.973Z,100222.16
2023-04-07T14:05:11.511Z,100197.44
2023-04-07T14:08:01.712Z,100311.09
2023-04-07T14:10:48.751Z,100229.94
2023-04-07T14:13:38.519Z,100231.50
2023-04-07T14:16:25.779Z,100299.59
2023-04-07T14:19:12.064Z,100258.91
2023-04-07T14:21:58.663Z,100272.19
2023-04-07T14:24:45.389Z,100276.47
2023-04-07T14:27:32.734Z,100275.69
2023-04-07T14:30:19.440Z,100306.59
2023-04-07T14:33:06.191Z,100289.00
2023-04-07T14:35:53.023Z,100209.22
2023-04-07T14:38:41.260Z,100334.22
2023-04-07T14:41:33.124Z,100285.91
2023-04-07T14:44:19.613Z,100338.59
2023-04-07T14:47:06.205Z,100243.09
2023-04-07T14:49:53.823Z,100296.78
2023-04-07T14:52:39.729Z,100337.19
2023-04-07T14:55:27.295Z,100328.41
2023-04-07T14:58:13.737Z,100334.13
2023-04-07T15:01:02.084Z,100301.00
2023-04-07T15:03:49.775Z,100328.63
2023-04-07T15:06:36.973Z,100219.63
2023-04-07T15:09:24.086Z,100268.41
2023-04-07T15:12:11.051Z,100238.56
2023-04-07T15:14:58.389Z,100240.44
2023-04-07T15:17:45.571Z,100338.31
2023-04-07T15:20:32.636Z,100266.47
2023-04-07T15:23:22.161Z,100258.59
2023-04-07T15:26:09.913Z,100275.44
2023-04-07T15:28:55.924Z,100240.44
2023-04-07T15:31:42.652Z,100318.28
2023-04-07T15:34:29.374Z,100327.47
2023-04-07T15:37:17.440Z,100303.06
2023-04-07T15:40:04.237Z,100325.88
2023-04-07T15:42:51.498Z,100258.38
2023-04-07T15:45:44.897Z,100263.25
2023-04-07T15:48:31.464Z,100275.38
2023-04-07T15:51:19.873Z,100265.00
2023-04-07T15:54:05.926Z,100327.47
2023-04-07T15:56:52.958Z,100218.44
2023-04-07T15:59:40.218Z,100194.31
2023-04-07T16:02:26.740Z,100284.91
2023-04-07T16:05:12.871Z,100296.06
2023-04-07T16:07:59.398Z,100288.19
2023-04-07T16:10:46.763Z,100226.13
2023-04-07T16:13:33.179Z,100300.72
2023-04-07T16:16:19.934Z,100338.44
2023-04-07T16:19:05.949Z,100248.69
2023-04-07T16:21:52.608Z,100298.34
2023-04-07T16:24:39.467Z,100303.75
2023-04-07T16:27:26.153Z,100312.47
2023-04-07T16:30:15.709Z,100299.50
2023-04-07T16:33:01.987Z,100275.94
2023-04-07T16:35:49.819Z,100362.22
2023-04-07T16:38:35.492Z,100367.97
2023-04-07T16:41:23.709Z,100326.69
2023-04-07T16:44:09.679Z,100280.94
2023-04-07T16:46:56.535Z,100292.56
2023-04-07T16:49:42.711Z,100323.25
2023-04-07T16:52:29.290Z,100302.94
2023-04-07T16:55:15.419Z,100364.47
2023-04-07T16:58:01.990Z,100323.34
2023-04-07T17:00:47.786Z,100329.50
2023-04-07T17:03:34.261Z,100311.41
2023-04-07T17:06:20.488Z,100278.91
2023-04-07T17:09:06.623Z,100323.13
2023-04-07T17:11:52.455Z,100323.66
2023-04-07T17:14:39.283Z,100334.00
2023-04-07T17:17:25.431Z,100273.25
2023-04-07T17:20:12.671Z,100295.56
2023-04-07T17:22:58.654Z,100389.91
2023-04-07T17:25:49.801Z,100356.31
2023-04-07T17:28:35.547Z,100322.44
2023-04-07T17:31:22.506Z,100313.50
2023-04-07T17:34:10.211Z,100364.78
2023-04-07T17:36:59.971Z,100398.66
2023-04-07T17:39:47.237Z,100393.81
2023-04-07T17:42:33.839Z,100379.78
2023-04-07T17:45:20.162Z,100317.88
2023-04-07T17:48:10.772Z,100378.16
2023-04-07T17:50:58.739Z,100422.69
2023-04-07T17:53:44.994Z,100421.91
2023-04-07T17:56:31.667Z,100376.00
2023-04-07T17:59:18.039Z,100386.06
2023-04-07T18:02:09.230Z,100387.69
2023-04-07T18:05:01.453Z,100382.28
2023-04-07T18:07:48.428Z,100429.78
2023-04-07T18:10:34.751Z,100410.28
2023-04-07T18:13:20.736Z,100407.59
2023-04-07T18:16:12.088Z,100418.19
2023-04-07T18:18:57.916Z,100444.47
2023-04-07T18:21:44.316Z,100384.25
2023-04-07T18:24:30.485Z,100453.50
2023-04-07T18:27:17.047Z,100397.56
2023-04-07T18:30:03.271Z,100370.72
2023-04-07T18:32:52.927Z,100450.53
2023-04-07T18:35:39.382Z,100450.84
2023-04-07T18:38:26.472Z,100476.41
2023-04-07T18:41:12.586Z,100487.03
2023-04-07T18:43:59.013Z,100466.69
2023-04-07T18:46:46.310Z,100471.84
2023-04-07T18:49:32.537Z,100455.00
2023-04-07T18:52:18.623Z,100482.44
2023-04-07T18:55:06.210Z,100470.47
2023-04-07T18:57:52.616Z,100429.50
2023-04-07T19:00:39.125Z,100474.91
2023-04-07T19:03:26.521Z,100440.94
2023-04-07T19:06:15.461Z,100528.75
2023-04-07T19:09:01.578Z,100487.13
2023-04-07T19:11:48.168Z,100475.16
2023-04-07T19:14:35.831Z,100492.81
2023-04-07T19:17:22.381Z,100519.75
2023-04-07T19:20:09.087Z,100450.75
2023-04-07T19:22:57.516Z,100523.28
2023-04-07T19:25:45.779Z,100516.22
2023-04-07T19:28:33.947Z,100527.94
2023-04-07T19:31:19.682Z,100484.75
2023-04-07T19:34:05.571Z,100528.25
2023-04-07T19:36:51.831Z,100456.19
2023-04-07T19:39:39.375Z,100530.69
2023-04-07T19:42:26.493Z,100525.78
2023-04-07T19:45:12.914Z,100458.44
2023-04-07T19:48:00.156Z,100467.09
2023-04-07T19:50:48.285Z,100513.31
2023-04-07T19:53:34.425Z,100522.84
2023-04-07T19:56:20.401Z,100534.50
2023-04-07T19:59:08.211Z,100534.50
2023-04-07T20:01:55.004Z,100523.13
2023-04-07T20:04:41.201Z,100531.84
2023-04-07T20:07:27.862Z,100551.72
2023-04-07T20:10:13.619Z,100549.78
2023-04-07T20:13:00.372Z,100493.78
2023-04-07T20:15:46.973Z,100545.22
2023-04-07T20:18:33.193Z,100546.00
2023-04-07T20:21:19.406Z,100553.06
2023-04-07T20:24:05.306Z,100562.13
2023-04-07T20:26:51.776Z,100532.25
2023-04-07T20:29:38.218Z,100553.19
2023-04-07T20:32:24.292Z,100553.50
2023-04-07T20:35:12.048Z,100565.50
2023-04-07T20:37:57.876Z,100572.28
2023-04-07T20:40:46.195Z,100563.06
2023-04-07T20:43:32.026Z,100561.72
2023-04-07T20:46:19.463Z,100523.41
2023-04-07T20:49:07.900Z,100584.59
2023-04-07T20:51:55.646Z,100591.13
2023-04-07T20:54:45.202Z,100587.88
2023-04-07T20:57:32.089Z,100487.53
2023-04-07T21:00:19.099Z,100579.19
2023-04-07T21:03:05.415Z,100584.94
2023-04-07T21:05:51.554Z,100590.63
2023-04-07T21:08:37.795Z,100599.13
2023-04-07T21:11:23.352Z,100522.94
2023-04-07T21:14:09.577Z,100561.00
2023-04-07T21:16:55.480Z,100548.25
2023-04-07T21:19:42.434Z,100529.47
2023-04-07T21:22:28.724Z,100607.31
2023-04-07T21:25:14.955Z,100538.75
2023-04-07T21:28:00.573Z,100560.25
2023-04-07T21:30:46.808Z,100572.78
2023-04-07T21:33:33.482Z,100596.72
2023-04-07T21:36:19.598Z,100601.34
2023-04-07T21:39:05.229Z,100613.06
2023-04-07T21:41:51.275Z,100612.78
2023-04-07T21:44:37.126Z,100542.03
2023-04-07T21:47:23.064Z,100577.69
2023-04-07T21:50:09.602Z,100595.69
2023-04-07T21:52:55.839Z,100528.94
2023-04-07T21:55:41.814Z,100624.53
2023-04-07T21:58:28.169Z,100620.44
2023-04-07T22:01:14.084Z,100604.91
2023-04-07T22:04:00.864Z,100599.75
2023-04-07T22:06:47.474Z,100621.25
2023-04-07T22:09:33.672Z,100578.75
2023-04-07T22:12:19.490Z,100624.53
2023-04-07T22:15:06.732Z,100621.53
2023-04-07T22:17:52.594Z,100556.97
2023-04-07T22:20:38.974Z,100592.91
2023-04-07T22:23:24.718Z,100615.50
2023-04-07T22:26:11.121Z,100638.41
2023-04-07T22:28:56.847Z,100566.97
2023-04-07T22:31:43.478Z,100628.00
2023-04-07T22:34:29.289Z,100633.19
2023-04-07T22:37:15.829Z,100638.34
2023-04-07T22:40:02.402Z,100633.97
2023-04-07T22:42:52.157Z,100631.53
2023-04-07T22:45:37.755Z,100633.97
2023-04-07T22:48:23.887Z,100580.25
2023-04-07T22:51:09.631Z,100649.19
2023-04-07T22:53:55.838Z,100578.91
2023-04-07T22:56:42.749Z,100614.56
2023-04-07T22:59:28.721Z,100632.28
2023-04-07T23:02:15.541Z,100651.09
2023-04-07T23:05:02.154Z,100576.72
2023-04-07T23:07:49.226Z,100624.44
2023-04-07T23:10:35.618Z,100630.16
2023-04-07T23:13:21.605Z,100640.78
2023-04-07T23:16:12.162Z,100647.31
2023-04-07T23:18:58.084Z,100676.69
2023-04-07T23:21:44.305Z,100644.19
2023-04-07T23:24:30.442Z,100672.56
2023-04-07T23:27:17.538Z,100609.78
2023-04-07T23:30:04.310Z,100630.00
2023-04-07T23:32:51.879Z,100680.38
2023-04-07T23:35:37.651Z,100638.97
2023-04-07T23:38:24.940Z,100679.84
2023-04-07T23:41:10.831Z,100625.56
2023-04-07T23:43:57.283Z,100662.41
2023-04-07T23:46:43.515Z,100643.03
2023-04-07T23:49:29.646Z,100682.00
2023-04-07T23:52:16.419Z,100649.56
2023-04-07T23:55:02.702Z,100679.00
2023-04-07T23:57:48.844Z,100651.41
